Atlas — SV6729 — position and weather

sailwx.info

Track history (hours):
 
Tides and Currents Weather Stations Pressure Air Temp Water Temp Dewpoint Dewpoint Depression Visibility Wind Speed Wind Dir Waves Ship Positions

Atlas

Last reported at 2017-May-24 07:30 UTC. Time now 2017-May-24 07:58 UTC.
Position N 37°57' E 023°37'.

Length 29 m; draft 5 m.

Type: Tug. MMSI: 239611000.

Date/timePositionNaut miles runAvg speedWind from/ knotsBaromVisibWave heightAir tempDewpointWater temp
2017-May-24 07:30N 37°57' E 023°37'0 0.0
2017-May-24 07:00N 37°57' E 023°37'0 0.0
2017-May-24 06:30N 37°57' E 023°37'0 0.0
2017-May-24 06:00N 37°57' E 023°37'0 0.0
2017-May-24 05:30N 37°57' E 023°37'0 0.0
2017-May-24 05:00N 37°57' E 023°37'1 1.3
2017-May-24 04:30N 37°57' E 023°36'1 1.3
2017-May-24 04:00N 37°57' E 023°37'0 0.0
2017-May-24 03:30N 37°57' E 023°37'0 0.0
2017-May-24 03:00N 37°57' E 023°37'0 0.0
2017-May-23 10:56N 37°57' E 023°37'0 0.0
2017-May-23 10:30N 37°57' E 023°37'0 0.0
2017-May-23 10:00N 37°57' E 023°37'0 0.6
2017-May-23 09:30N 37°57' E 023°36'0 0.7
2017-May-23 09:00N 37°57' E 023°36'0 0.5
2017-May-23 08:30N 37°57' E 023°37'0 0.0
2017-May-23 08:00N 37°57' E 023°37'0 0.0
2017-May-23 07:30N 37°57' E 023°37'0 0.0
2017-May-23 07:00N 37°57' E 023°37'0 0.0
2017-May-23 06:30N 37°57' E 023°37'0 0.0
2017-May-23 06:00N 37°57' E 023°37'0 0.0
2017-May-23 05:30N 37°57' E 023°37'0 0.0
2017-May-23 05:00N 37°57' E 023°37'0 0.0
2017-May-23 04:30N 37°57' E 023°37'0 0.0
2017-May-23 04:00N 37°57' E 023°37'0 0.0
2017-May-23 03:30N 37°57' E 023°37'0 0.0
2017-May-22 20:57N 37°57' E 023°37'1 2.2
2017-May-22 20:31N 37°57' E 023°35'0 0.0
2017-May-22 20:00N 37°57' E 023°35'1 2.0
2017-May-22 19:31N 37°57' E 023°37'0 0.0
2017-May-22 19:00N 37°57' E 023°37'0 0.0
2017-May-22 18:30N 37°57' E 023°37'0 0.0
2017-May-22 18:00N 37°57' E 023°37'0 0.0
2017-May-22 17:30N 37°57' E 023°37'0 0.0
2017-May-22 17:00N 37°57' E 023°37'0 0.0
2017-May-22 16:30N 37°57' E 023°37'0 0.0
2017-May-22 16:00N 37°57' E 023°37'0 0.0
2017-May-22 15:30N 37°57' E 023°37'0 0.0
2017-May-22 15:00N 37°57' E 023°37'0 0.0
2017-May-22 14:00N 37°57' E 023°37'0 0.1
2017-May-22 13:30N 37°57' E 023°37'0 0.0
2017-May-22 13:00N 37°57' E 023°37'0 0.0
2017-May-22 12:30N 37°57' E 023°37'0 0.0
2017-May-22 12:00N 37°57' E 023°37'0 0.0
2017-May-22 11:30N 37°57' E 023°37'0 0.0
2017-May-22 11:00N 37°57' E 023°37'0 0.0
2017-May-22 10:30N 37°57' E 023°37'0 0.0
2017-May-22 10:00N 37°57' E 023°37'0 0.4
2017-May-22 09:30N 37°57' E 023°36'1 2.5
2017-May-22 09:00N 37°57' E 023°35'0 0.5
2017-May-22 08:31N 37°57' E 023°35'3 5.2
2017-May-22 08:00N 37°59' E 023°33'4 7.2
2017-May-22 07:30N 38°02' E 023°32'2 3.1
2017-May-22 07:00N 38°02' E 023°30'0 0.9
2017-May-22 06:30N 38°01' E 023°30'1 1.5
2017-May-22 06:00N 38°01' E 023°31'1 1.1
2017-May-22 05:30N 38°01' E 023°31'4 8.9
2017-May-22 05:00N 37°57' E 023°34'1 3.0
2017-May-22 04:30N 37°57' E 023°36'1 1.1
2017-May-22 04:00N 37°57' E 023°36'1 1.3
2017-May-22 03:30N 37°57' E 023°37'0 0.0
2017-May-22 03:00N 37°57' E 023°37'0 0.0
2017-May-20 21:00N 37°57' E 023°37'3 6.8
2017-May-20 20:31N 37°59' E 023°33'4 7.3
2017-May-20 20:00N 38°02' E 023°31'1 1.6
2017-May-20 19:30N 38°01' E 023°31'5 9.5
2017-May-20 19:00N 37°57' E 023°34'2 3.9
2017-May-20 18:30N 37°57' E 023°37'0 0.0
2017-May-20 18:00N 37°57' E 023°37'0 0.0
2017-May-20 17:30N 37°57' E 023°37'0 0.0
2017-May-20 17:00N 37°57' E 023°37'1 2.2
2017-May-20 16:30N 37°57' E 023°35'1 2.2
2017-May-20 16:00N 37°57' E 023°37'0 0.0
2017-May-20 15:30N 37°57' E 023°37'1 1.3
2017-May-20 15:01N 37°57' E 023°36'1 0.7
2017-May-20 14:00N 37°57' E 023°37'0 0.0
2017-May-20 13:30N 37°57' E 023°37'0 0.0
2017-May-20 13:00N 37°57' E 023°37'0 0.0
2017-May-20 12:30N 37°57' E 023°37'0 0.0
2017-May-20 12:00N 37°57' E 023°37'0 0.0
2017-May-20 11:30N 37°57' E 023°37'0 0.0
2017-May-20 11:00N 37°57' E 023°37'0 0.0
2017-May-20 10:30N 37°57' E 023°37'0 0.0
2017-May-20 10:00N 37°57' E 023°37'0 0.0
2017-May-20 09:30N 37°57' E 023°37'0 0.0
2017-May-20 09:01N 37°57' E 023°37'0 0.9
2017-May-20 08:31N 37°57' E 023°36'0 0.2
2017-May-20 08:01N 37°57' E 023°36'0 0.3
2017-May-20 07:31N 37°57' E 023°36'0 0.2
2017-May-20 07:00N 37°57' E 023°36'1 1.2
2017-May-20 06:31N 37°57' E 023°37'0 0.0
2017-May-20 06:00N 37°57' E 023°37'0 0.0
2017-May-20 05:30N 37°57' E 023°37'1 1.4
2017-May-20 05:00N 37°57' E 023°36'0 0.9
2017-May-20 04:30N 37°57' E 023°35'1 2.3
2017-May-20 04:00N 37°57' E 023°37'0 0.0
2017-May-20 03:30N 37°57' E 023°37'0 0.0
2017-May-20 03:00N 37°57' E 023°37'0 0.0
2017-May-20 02:30N 37°57' E 023°37'0 0.0
2017-May-20 02:01N 37°57' E 023°37'0 0.0
2017-May-20 01:30N 37°57' E 023°37'0 0.0
2017-May-20 01:01N 37°57' E 023°37'0 0.0
2017-May-20 00:30N 37°57' E 023°37'0 0.0
2017-May-20 00:01N 37°57' E 023°37'0 0.0
2017-May-19 23:30N 37°57' E 023°37'1 1.1
2017-May-19 23:00N 37°57' E 023°36'4 8.3
2017-May-19 22:30N 38°00' E 023°32'2 4.1
2017-May-19 22:01N 38°02' E 023°30'1 1.3
2017-May-19 21:30N 38°01' E 023°31'0 0.1
2017-May-19 21:01N 38°01' E 023°31'1 2.7
2017-May-19 20:30N 38°00' E 023°32'4 8.3
2017-May-19 20:00N 37°57' E 023°36'1 1.6
2017-May-19 19:30N 37°57' E 023°37'0 0.0
2017-May-19 19:00N 37°57' E 023°37'1 1.2
2017-May-19 18:31N 37°57' E 023°36'1 1.2
2017-May-19 18:01N 37°57' E 023°37'0 0.0
2017-May-19 17:31N 37°57' E 023°37'0 0.1
2017-May-19 17:01N 37°57' E 023°37'0 0.1
2017-May-19 16:31N 37°57' E 023°37'0 0.0
2017-May-19 16:01N 37°57' E 023°37'0 0.0
2017-May-19 15:30N 37°57' E 023°37'0 0.0
2017-May-19 15:01N 37°57' E 023°37'0 0.0
2017-May-19 14:31N 37°57' E 023°37'0 0.0
2017-May-19 13:31N 37°57' E 023°37'0 0.0
2017-May-19 13:01N 37°57' E 023°37'0 0.0
2017-May-19 12:30N 37°57' E 023°37'0 0.0
2017-May-19 12:01N 37°57' E 023°37'1 2.1
2017-May-19 11:31N 37°57' E 023°35'0 0.9
2017-May-19 11:01N 37°57' E 023°36'0 0.8
2017-May-19 10:30N 37°57' E 023°36'0 0.8
2017-May-19 10:01N 37°57' E 023°36'1 2.3
2017-May-19 09:31N 37°57' E 023°34'5 9.5
2017-May-19 09:00N 38°02' E 023°33'0 0.5
2017-May-19 08:30N 38°02' E 023°33'1 2.0
2017-May-19 08:01N 38°01' E 023°33'4 8.5
2017-May-19 07:30N 37°57' E 023°35'1 2.7
2017-May-19 07:01N 37°57' E 023°37'0 0.0
2017-May-19 06:31N 37°57' E 023°37'0 0.0
2017-May-17 12:07N 37°57' E 023°37'0 1.5
2017-May-17 12:00N 37°57' E 023°36'4 7.2
2017-May-17 11:31N 38°00' E 023°33'3 5.0
2017-May-17 11:01N 38°02' E 023°36'0 0.5
2017-May-17 10:31N 38°01' E 023°36'0 0.0
2017-May-17 10:00N 38°01' E 023°36'0 0.0
2017-May-17 09:30N 38°01' E 023°36'0 0.0
2017-May-17 09:00N 38°01' E 023°36'0 0.0
2017-May-17 08:30N 38°01' E 023°36'0 0.0
2017-May-17 08:00N 38°01' E 023°36'0 0.0
2017-May-17 07:30N 38°01' E 023°36'0 0.0
2017-May-17 07:01N 38°01' E 023°36'0 0.0
2017-May-17 06:30N 38°01' E 023°36'0 0.0
2017-May-17 06:00N 38°01' E 023°36'0 0.0
2017-May-17 05:31N 38°01' E 023°36'0 0.0
2017-May-17 05:00N 38°01' E 023°36'0 0.0
2017-May-17 04:30N 38°01' E 023°36'0 0.0
2017-May-17 04:00N 38°01' E 023°36'0 0.0
2017-May-17 03:30N 38°01' E 023°36'0 0.0
2017-May-17 03:01N 38°01' E 023°36'0 0.0
2017-May-17 02:30N 38°01' E 023°36'0 0.0
2017-May-17 02:00N 38°01' E 023°36'0 0.0
2017-May-17 01:30N 38°01' E 023°36'0 0.0
2017-May-17 01:00N 38°01' E 023°36'0 0.0
2017-May-17 00:30N 38°01' E 023°36'0 0.0
2017-May-17 00:00N 38°01' E 023°36'0 0.0
2017-May-16 23:30N 38°01' E 023°36'0 0.0
2017-May-16 23:00N 38°01' E 023°36'0 0.0
2017-May-16 22:30N 38°01' E 023°36'0 0.0
2017-May-16 22:00N 38°01' E 023°36'0 0.0
2017-May-16 21:30N 38°01' E 023°36'0 0.0
2017-May-16 21:01N 38°01' E 023°36'0 0.0
2017-May-16 20:31N 38°01' E 023°36'0 0.0
2017-May-16 20:00N 38°01' E 023°36'0 0.0
2017-May-16 19:31N 38°01' E 023°36'0 0.0
2017-May-16 19:00N 38°01' E 023°36'0 0.0
2017-May-16 18:30N 38°01' E 023°36'0 0.0
2017-May-16 18:00N 38°01' E 023°36'0 0.0
2017-May-16 17:30N 38°01' E 023°36'0 0.0
2017-May-16 17:00N 38°01' E 023°36'0 0.0
2017-May-16 16:30N 38°01' E 023°36'0 0.0
2017-May-16 16:00N 38°01' E 023°36'0 0.0
2017-May-16 15:30N 38°01' E 023°36'0 0.0
2017-May-16 15:00N 38°01' E 023°36'0 0.0
2017-May-16 14:00N 38°01' E 023°36'0 0.0
2017-May-16 13:30N 38°01' E 023°36'0 0.0
2017-May-16 13:00N 38°01' E 023°36'0 0.0
2017-May-16 12:30N 38°01' E 023°36'0 0.0
2017-May-16 12:00N 38°01' E 023°36'0 0.0
2017-May-16 11:30N 38°01' E 023°36'0 0.0
2017-May-16 11:00N 38°01' E 023°36'0 0.0
2017-May-16 10:30N 38°01' E 023°36'0 0.0
2017-May-16 10:00N 38°01' E 023°36'0 0.0
2017-May-16 09:30N 38°01' E 023°36'0 0.0
2017-May-16 09:00N 38°01' E 023°36'0 0.0
2017-May-16 08:30N 38°01' E 023°36'0 0.0
2017-May-16 08:01N 38°01' E 023°36'0 0.0
2017-May-16 07:30N 38°01' E 023°36'0 0.0
2017-May-16 07:00N 38°01' E 023°36'0 0.0
2017-May-16 06:30N 38°01' E 023°36'0 0.0
2017-May-16 06:00N 38°01' E 023°36'0 0.0
2017-May-16 05:30N 38°01' E 023°36'0 0.0
2017-May-16 05:00N 38°01' E 023°36'0 0.0
2017-May-16 04:30N 38°01' E 023°36'0 0.0
2017-May-16 04:00N 38°01' E 023°36'0 0.0
2017-May-16 03:30N 38°01' E 023°36'0 0.0
2017-May-16 03:01N 38°01' E 023°36'0 0.0
2017-May-16 02:30N 38°01' E 023°36'0 0.0
2017-May-16 02:00N 38°01' E 023°36'0 0.0
2017-May-16 01:30N 38°01' E 023°36'0 0.0
2017-May-16 01:01N 38°01' E 023°36'0 0.0
2017-May-16 00:31N 38°01' E 023°36'0 0.0
2017-May-16 00:00N 38°01' E 023°36'0 0.0
2017-May-15 23:30N 38°01' E 023°36'0 0.0
2017-May-15 23:00N 38°01' E 023°36'0 0.0
2017-May-15 22:30N 38°01' E 023°36'0 0.0
2017-May-15 22:00N 38°01' E 023°36'0 0.0
2017-May-15 21:30N 38°01' E 023°36'0 0.0
2017-May-15 21:00N 38°01' E 023°36'0 0.0
2017-May-15 20:30N 38°01' E 023°36'0 0.0
2017-May-15 20:00N 38°01' E 023°36'0 0.0
2017-May-15 19:30N 38°01' E 023°36'0 0.0
2017-May-15 19:00N 38°01' E 023°36'0 0.0
2017-May-15 18:30N 38°01' E 023°36'0 0.0
2017-May-15 18:00N 38°01' E 023°36'0 0.0
2017-May-15 17:30N 38°01' E 023°36'0 0.0
2017-May-15 17:00N 38°01' E 023°36'0 0.0
2017-May-15 16:30N 38°01' E 023°36'0 0.0
2017-May-15 16:00N 38°01' E 023°36'0 0.0
2017-May-15 15:30N 38°01' E 023°36'0 0.0
2017-May-15 15:00N 38°01' E 023°36'0 0.0
2017-May-15 14:30N 38°01' E 023°36'0 0.0
2017-May-15 13:30N 38°01' E 023°36'0 0.0
2017-May-15 13:00N 38°01' E 023°36'0 0.0
2017-May-15 12:30N 38°01' E 023°36'0 0.0
2017-May-15 12:00N 38°01' E 023°36'0 0.0
2017-May-15 11:30N 38°01' E 023°36'0 0.0
2017-May-15 11:00N 38°01' E 023°36'0 0.0
2017-May-15 10:30N 38°01' E 023°36'0 0.0
2017-May-15 10:00N 38°01' E 023°36'0 0.0
2017-May-15 09:30N 38°01' E 023°36'0 0.5
2017-May-15 08:59N 38°02' E 023°36'0 0.5
2017-May-15 08:30N 38°01' E 023°36'0 0.0
2017-May-15 08:00N 38°01' E 023°36'0 0.5
2017-May-15 07:30N 38°02' E 023°36'0 0.5
2017-May-15 06:59N 38°01' E 023°36'0 0.0
2017-May-15 06:30N 38°01' E 023°36'0 0.0
2017-May-15 06:00N 38°01' E 023°36'0 0.0
2017-May-15 05:29N 38°01' E 023°36'0 0.0
2017-May-15 04:53N 38°01' E 023°36'0 0.0
2017-May-15 04:30N 38°01' E 023°36'0 0.0
2017-May-15 04:00N 38°01' E 023°36'0 0.0
2017-May-15 03:30N 38°01' E 023°36'0 0.0
2017-May-15 03:00N 38°01' E 023°36'0 0.0
2017-May-15 02:31N 38°01' E 023°36'0 0.0
2017-May-15 02:00N 38°01' E 023°36'0 0.0
2017-May-15 01:30N 38°01' E 023°36'0 0.0
2017-May-15 01:00N 38°01' E 023°36'0 0.0
2017-May-15 00:30N 38°01' E 023°36'0 0.0
2017-May-15 00:01N 38°01' E 023°36'0 0.0
2017-May-14 23:30N 38°01' E 023°36'0 0.0
2017-May-14 23:00N 38°01' E 023°36'0 0.0
2017-May-14 22:30N 38°01' E 023°36'0 0.0
2017-May-14 22:01N 38°01' E 023°36'0 0.0
2017-May-14 21:30N 38°01' E 023°36'0 0.0
2017-May-14 21:01N 38°01' E 023°36'0 0.0
2017-May-14 20:30N 38°01' E 023°36'0 0.0
2017-May-14 20:00N 38°01' E 023°36'0 0.0
2017-May-14 19:31N 38°01' E 023°35'0 0.0
2017-May-14 19:00N 38°01' E 023°35'0 0.0
2017-May-14 18:30N 38°01' E 023°35'0 0.0
2017-May-14 18:00N 38°01' E 023°35'0 0.0
2017-May-14 17:30N 38°01' E 023°36'0 0.0
2017-May-14 17:00N 38°01' E 023°36'0 0.0
2017-May-14 16:30N 38°01' E 023°36'0 0.0
2017-May-14 16:01N 38°01' E 023°36'0 0.0
2017-May-14 15:30N 38°01' E 023°36'0 0.0
2017-May-14 15:00N 38°01' E 023°35'0 0.0
2017-May-14 14:30N 38°01' E 023°36'0 0.0
2017-May-14 13:30N 38°01' E 023°36'0 0.0
2017-May-14 13:00N 38°01' E 023°36'0 0.0
2017-May-14 12:30N 38°01' E 023°36'0 0.0
2017-May-14 12:01N 38°01' E 023°36'0 0.0
2017-May-14 11:30N 38°01' E 023°36'0 0.0
2017-May-14 11:00N 38°01' E 023°36'0 0.0
2017-May-14 10:31N 38°01' E 023°36'0 0.0
2017-May-14 10:00N 38°01' E 023°36'0 0.0
2017-May-14 09:31N 38°01' E 023°36'0 0.0
2017-May-14 09:00N 38°01' E 023°36'0 0.0
2017-May-14 08:29N 38°01' E 023°36'0 0.5
2017-May-14 08:00N 38°02' E 023°36'1 2.8
2017-May-14 07:30N 38°01' E 023°34'  
Track history (hours):
 
Tides and Currents Weather Stations Pressure Air Temp Water Temp Dewpoint Dewpoint Depression Visibility Wind Speed Wind Dir Waves Ship Positions

Atlas

Last reported at 2017-May-24 07:30 UTC. Time now 2017-May-24 07:58 UTC.
Position N 37°57' E 023°37'.

Length 29 m; draft 5 m.

Type: Tug. MMSI: 239611000.

Date/timePositionNaut miles runAvg speedWind from/ knotsBaromVisibWave heightAir tempDewpointWater temp
2017-May-24 07:30N 37°57' E 023°37'0 0.0
2017-May-24 07:00N 37°57' E 023°37'0 0.0
2017-May-24 06:30N 37°57' E 023°37'0 0.0
2017-May-24 06:00N 37°57' E 023°37'0 0.0
2017-May-24 05:30N 37°57' E 023°37'0 0.0
2017-May-24 05:00N 37°57' E 023°37'1 1.3
2017-May-24 04:30N 37°57' E 023°36'1 1.3
2017-May-24 04:00N 37°57' E 023°37'0 0.0
2017-May-24 03:30N 37°57' E 023°37'0 0.0
2017-May-24 03:00N 37°57' E 023°37'0 0.0
2017-May-23 10:56N 37°57' E 023°37'0 0.0
2017-May-23 10:30N 37°57' E 023°37'0 0.0
2017-May-23 10:00N 37°57' E 023°37'0 0.6
2017-May-23 09:30N 37°57' E 023°36'0 0.7
2017-May-23 09:00N 37°57' E 023°36'0 0.5
2017-May-23 08:30N 37°57' E 023°37'0 0.0
2017-May-23 08:00N 37°57' E 023°37'0 0.0
2017-May-23 07:30N 37°57' E 023°37'0 0.0
2017-May-23 07:00N 37°57' E 023°37'0 0.0
2017-May-23 06:30N 37°57' E 023°37'0 0.0
2017-May-23 06:00N 37°57' E 023°37'0 0.0
2017-May-23 05:30N 37°57' E 023°37'0 0.0
2017-May-23 05:00N 37°57' E 023°37'0 0.0
2017-May-23 04:30N 37°57' E 023°37'0 0.0
2017-May-23 04:00N 37°57' E 023°37'0 0.0
2017-May-23 03:30N 37°57' E 023°37'0 0.0
2017-May-22 20:57N 37°57' E 023°37'1 2.2
2017-May-22 20:31N 37°57' E 023°35'0 0.0
2017-May-22 20:00N 37°57' E 023°35'1 2.0
2017-May-22 19:31N 37°57' E 023°37'0 0.0
2017-May-22 19:00N 37°57' E 023°37'0 0.0
2017-May-22 18:30N 37°57' E 023°37'0 0.0
2017-May-22 18:00N 37°57' E 023°37'0 0.0
2017-May-22 17:30N 37°57' E 023°37'0 0.0
2017-May-22 17:00N 37°57' E 023°37'0 0.0
2017-May-22 16:30N 37°57' E 023°37'0 0.0
2017-May-22 16:00N 37°57' E 023°37'0 0.0
2017-May-22 15:30N 37°57' E 023°37'0 0.0
2017-May-22 15:00N 37°57' E 023°37'0 0.0
2017-May-22 14:00N 37°57' E 023°37'0 0.1
2017-May-22 13:30N 37°57' E 023°37'0 0.0
2017-May-22 13:00N 37°57' E 023°37'0 0.0
2017-May-22 12:30N 37°57' E 023°37'0 0.0
2017-May-22 12:00N 37°57' E 023°37'0 0.0
2017-May-22 11:30N 37°57' E 023°37'0 0.0
2017-May-22 11:00N 37°57' E 023°37'0 0.0
2017-May-22 10:30N 37°57' E 023°37'0 0.0
2017-May-22 10:00N 37°57' E 023°37'0 0.4
2017-May-22 09:30N 37°57' E 023°36'1 2.5
2017-May-22 09:00N 37°57' E 023°35'0 0.5
2017-May-22 08:31N 37°57' E 023°35'3 5.2
2017-May-22 08:00N 37°59' E 023°33'4 7.2
2017-May-22 07:30N 38°02' E 023°32'2 3.1
2017-May-22 07:00N 38°02' E 023°30'0 0.9
2017-May-22 06:30N 38°01' E 023°30'1 1.5
2017-May-22 06:00N 38°01' E 023°31'1 1.1
2017-May-22 05:30N 38°01' E 023°31'4 8.9
2017-May-22 05:00N 37°57' E 023°34'1 3.0
2017-May-22 04:30N 37°57' E 023°36'1 1.1
2017-May-22 04:00N 37°57' E 023°36'1 1.3
2017-May-22 03:30N 37°57' E 023°37'0 0.0
2017-May-22 03:00N 37°57' E 023°37'0 0.0
2017-May-20 21:00N 37°57' E 023°37'3 6.8
2017-May-20 20:31N 37°59' E 023°33'4 7.3
2017-May-20 20:00N 38°02' E 023°31'1 1.6
2017-May-20 19:30N 38°01' E 023°31'5 9.5
2017-May-20 19:00N 37°57' E 023°34'2 3.9
2017-May-20 18:30N 37°57' E 023°37'0 0.0
2017-May-20 18:00N 37°57' E 023°37'0 0.0
2017-May-20 17:30N 37°57' E 023°37'0 0.0
2017-May-20 17:00N 37°57' E 023°37'1 2.2
2017-May-20 16:30N 37°57' E 023°35'1 2.2
2017-May-20 16:00N 37°57' E 023°37'0 0.0
2017-May-20 15:30N 37°57' E 023°37'1 1.3
2017-May-20 15:01N 37°57' E 023°36'1 0.7
2017-May-20 14:00N 37°57' E 023°37'0 0.0
2017-May-20 13:30N 37°57' E 023°37'0 0.0
2017-May-20 13:00N 37°57' E 023°37'0 0.0
2017-May-20 12:30N 37°57' E 023°37'0 0.0
2017-May-20 12:00N 37°57' E 023°37'0 0.0
2017-May-20 11:30N 37°57' E 023°37'0 0.0
2017-May-20 11:00N 37°57' E 023°37'0 0.0
2017-May-20 10:30N 37°57' E 023°37'0 0.0
2017-May-20 10:00N 37°57' E 023°37'0 0.0
2017-May-20 09:30N 37°57' E 023°37'0 0.0
2017-May-20 09:01N 37°57' E 023°37'0 0.9
2017-May-20 08:31N 37°57' E 023°36'0 0.2
2017-May-20 08:01N 37°57' E 023°36'0 0.3
2017-May-20 07:31N 37°57' E 023°36'0 0.2
2017-May-20 07:00N 37°57' E 023°36'1 1.2
2017-May-20 06:31N 37°57' E 023°37'0 0.0
2017-May-20 06:00N 37°57' E 023°37'0 0.0
2017-May-20 05:30N 37°57' E 023°37'1 1.4
2017-May-20 05:00N 37°57' E 023°36'0 0.9
2017-May-20 04:30N 37°57' E 023°35'1 2.3
2017-May-20 04:00N 37°57' E 023°37'0 0.0
2017-May-20 03:30N 37°57' E 023°37'0 0.0
2017-May-20 03:00N 37°57' E 023°37'0 0.0
2017-May-20 02:30N 37°57' E 023°37'0 0.0
2017-May-20 02:01N 37°57' E 023°37'0 0.0
2017-May-20 01:30N 37°57' E 023°37'0 0.0
2017-May-20 01:01N 37°57' E 023°37'0 0.0
2017-May-20 00:30N 37°57' E 023°37'0 0.0
2017-May-20 00:01N 37°57' E 023°37'0 0.0
2017-May-19 23:30N 37°57' E 023°37'1 1.1
2017-May-19 23:00N 37°57' E 023°36'4 8.3
2017-May-19 22:30N 38°00' E 023°32'2 4.1
2017-May-19 22:01N 38°02' E 023°30'1 1.3
2017-May-19 21:30N 38°01' E 023°31'0 0.1
2017-May-19 21:01N 38°01' E 023°31'1 2.7
2017-May-19 20:30N 38°00' E 023°32'4 8.3
2017-May-19 20:00N 37°57' E 023°36'1 1.6
2017-May-19 19:30N 37°57' E 023°37'0 0.0
2017-May-19 19:00N 37°57' E 023°37'1 1.2
2017-May-19 18:31N 37°57' E 023°36'1 1.2
2017-May-19 18:01N 37°57' E 023°37'0 0.0
2017-May-19 17:31N 37°57' E 023°37'0 0.1
2017-May-19 17:01N 37°57' E 023°37'0 0.1
2017-May-19 16:31N 37°57' E 023°37'0 0.0
2017-May-19 16:01N 37°57' E 023°37'0 0.0
2017-May-19 15:30N 37°57' E 023°37'0 0.0
2017-May-19 15:01N 37°57' E 023°37'0 0.0
2017-May-19 14:31N 37°57' E 023°37'0 0.0
2017-May-19 13:31N 37°57' E 023°37'0 0.0
2017-May-19 13:01N 37°57' E 023°37'0 0.0
2017-May-19 12:30N 37°57' E 023°37'0 0.0
2017-May-19 12:01N 37°57' E 023°37'1 2.1
2017-May-19 11:31N 37°57' E 023°35'0 0.9
2017-May-19 11:01N 37°57' E 023°36'0 0.8
2017-May-19 10:30N 37°57' E 023°36'0 0.8
2017-May-19 10:01N 37°57' E 023°36'1 2.3
2017-May-19 09:31N 37°57' E 023°34'5 9.5
2017-May-19 09:00N 38°02' E 023°33'0 0.5
2017-May-19 08:30N 38°02' E 023°33'1 2.0
2017-May-19 08:01N 38°01' E 023°33'4 8.5
2017-May-19 07:30N 37°57' E 023°35'1 2.7
2017-May-19 07:01N 37°57' E 023°37'0 0.0
2017-May-19 06:31N 37°57' E 023°37'0 0.0
2017-May-17 12:07N 37°57' E 023°37'0 1.5
2017-May-17 12:00N 37°57' E 023°36'4 7.2
2017-May-17 11:31N 38°00' E 023°33'3 5.0
2017-May-17 11:01N 38°02' E 023°36'0 0.5
2017-May-17 10:31N 38°01' E 023°36'0 0.0
2017-May-17 10:00N 38°01' E 023°36'0 0.0
2017-May-17 09:30N 38°01' E 023°36'0 0.0
2017-May-17 09:00N 38°01' E 023°36'0 0.0
2017-May-17 08:30N 38°01' E 023°36'0 0.0
2017-May-17 08:00N 38°01' E 023°36'0 0.0
2017-May-17 07:30N 38°01' E 023°36'0 0.0
2017-May-17 07:01N 38°01' E 023°36'0 0.0
2017-May-17 06:30N 38°01' E 023°36'0 0.0
2017-May-17 06:00N 38°01' E 023°36'0 0.0
2017-May-17 05:31N 38°01' E 023°36'0 0.0
2017-May-17 05:00N 38°01' E 023°36'0 0.0
2017-May-17 04:30N 38°01' E 023°36'0 0.0
2017-May-17 04:00N 38°01' E 023°36'0 0.0
2017-May-17 03:30N 38°01' E 023°36'0 0.0
2017-May-17 03:01N 38°01' E 023°36'0 0.0
2017-May-17 02:30N 38°01' E 023°36'0 0.0
2017-May-17 02:00N 38°01' E 023°36'0 0.0
2017-May-17 01:30N 38°01' E 023°36'0 0.0
2017-May-17 01:00N 38°01' E 023°36'0 0.0
2017-May-17 00:30N 38°01' E 023°36'0 0.0
2017-May-17 00:00N 38°01' E 023°36'0 0.0
2017-May-16 23:30N 38°01' E 023°36'0 0.0
2017-May-16 23:00N 38°01' E 023°36'0 0.0
2017-May-16 22:30N 38°01' E 023°36'0 0.0
2017-May-16 22:00N 38°01' E 023°36'0 0.0
2017-May-16 21:30N 38°01' E 023°36'0 0.0
2017-May-16 21:01N 38°01' E 023°36'0 0.0
2017-May-16 20:31N 38°01' E 023°36'0 0.0
2017-May-16 20:00N 38°01' E 023°36'0 0.0
2017-May-16 19:31N 38°01' E 023°36'0 0.0
2017-May-16 19:00N 38°01' E 023°36'0 0.0
2017-May-16 18:30N 38°01' E 023°36'0 0.0
2017-May-16 18:00N 38°01' E 023°36'0 0.0
2017-May-16 17:30N 38°01' E 023°36'0 0.0
2017-May-16 17:00N 38°01' E 023°36'0 0.0
2017-May-16 16:30N 38°01' E 023°36'0 0.0
2017-May-16 16:00N 38°01' E 023°36'0 0.0
2017-May-16 15:30N 38°01' E 023°36'0 0.0
2017-May-16 15:00N 38°01' E 023°36'0 0.0
2017-May-16 14:00N 38°01' E 023°36'0 0.0
2017-May-16 13:30N 38°01' E 023°36'0 0.0
2017-May-16 13:00N 38°01' E 023°36'0 0.0
2017-May-16 12:30N 38°01' E 023°36'0 0.0
2017-May-16 12:00N 38°01' E 023°36'0 0.0
2017-May-16 11:30N 38°01' E 023°36'0 0.0
2017-May-16 11:00N 38°01' E 023°36'0 0.0
2017-May-16 10:30N 38°01' E 023°36'0 0.0
2017-May-16 10:00N 38°01' E 023°36'0 0.0
2017-May-16 09:30N 38°01' E 023°36'0 0.0
2017-May-16 09:00N 38°01' E 023°36'0 0.0
2017-May-16 08:30N 38°01' E 023°36'0 0.0
2017-May-16 08:01N 38°01' E 023°36'0 0.0
2017-May-16 07:30N 38°01' E 023°36'0 0.0
2017-May-16 07:00N 38°01' E 023°36'0 0.0
2017-May-16 06:30N 38°01' E 023°36'0 0.0
2017-May-16 06:00N 38°01' E 023°36'0 0.0
2017-May-16 05:30N 38°01' E 023°36'0 0.0
2017-May-16 05:00N 38°01' E 023°36'0 0.0
2017-May-16 04:30N 38°01' E 023°36'0 0.0
2017-May-16 04:00N 38°01' E 023°36'0 0.0
2017-May-16 03:30N 38°01' E 023°36'0 0.0
2017-May-16 03:01N 38°01' E 023°36'0 0.0
2017-May-16 02:30N 38°01' E 023°36'0 0.0
2017-May-16 02:00N 38°01' E 023°36'0 0.0
2017-May-16 01:30N 38°01' E 023°36'0 0.0
2017-May-16 01:01N 38°01' E 023°36'0 0.0
2017-May-16 00:31N 38°01' E 023°36'0 0.0
2017-May-16 00:00N 38°01' E 023°36'0 0.0
2017-May-15 23:30N 38°01' E 023°36'0 0.0
2017-May-15 23:00N 38°01' E 023°36'0 0.0
2017-May-15 22:30N 38°01' E 023°36'0 0.0
2017-May-15 22:00N 38°01' E 023°36'0 0.0
2017-May-15 21:30N 38°01' E 023°36'0 0.0
2017-May-15 21:00N 38°01' E 023°36'0 0.0
2017-May-15 20:30N 38°01' E 023°36'0 0.0
2017-May-15 20:00N 38°01' E 023°36'0 0.0
2017-May-15 19:30N 38°01' E 023°36'0 0.0
2017-May-15 19:00N 38°01' E 023°36'0 0.0
2017-May-15 18:30N 38°01' E 023°36'0 0.0
2017-May-15 18:00N 38°01' E 023°36'0 0.0
2017-May-15 17:30N 38°01' E 023°36'0 0.0
2017-May-15 17:00N 38°01' E 023°36'0 0.0
2017-May-15 16:30N 38°01' E 023°36'0 0.0
2017-May-15 16:00N 38°01' E 023°36'0 0.0
2017-May-15 15:30N 38°01' E 023°36'0 0.0
2017-May-15 15:00N 38°01' E 023°36'0 0.0
2017-May-15 14:30N 38°01' E 023°36'0 0.0
2017-May-15 13:30N 38°01' E 023°36'0 0.0
2017-May-15 13:00N 38°01' E 023°36'0 0.0
2017-May-15 12:30N 38°01' E 023°36'0 0.0
2017-May-15 12:00N 38°01' E 023°36'0 0.0
2017-May-15 11:30N 38°01' E 023°36'0 0.0
2017-May-15 11:00N 38°01' E 023°36'0 0.0
2017-May-15 10:30N 38°01' E 023°36'0 0.0
2017-May-15 10:00N 38°01' E 023°36'0 0.0
2017-May-15 09:30N 38°01' E 023°36'0 0.5
2017-May-15 08:59N 38°02' E 023°36'0 0.5
2017-May-15 08:30N 38°01' E 023°36'0 0.0
2017-May-15 08:00N 38°01' E 023°36'0 0.5
2017-May-15 07:30N 38°02' E 023°36'0 0.5
2017-May-15 06:59N 38°01' E 023°36'0 0.0
2017-May-15 06:30N 38°01' E 023°36'0 0.0
2017-May-15 06:00N 38°01' E 023°36'0 0.0
2017-May-15 05:29N 38°01' E 023°36'0 0.0
2017-May-15 04:53N 38°01' E 023°36'0 0.0
2017-May-15 04:30N 38°01' E 023°36'0 0.0
2017-May-15 04:00N 38°01' E 023°36'0 0.0
2017-May-15 03:30N 38°01' E 023°36'0 0.0
2017-May-15 03:00N 38°01' E 023°36'0 0.0
2017-May-15 02:31N 38°01' E 023°36'0 0.0
2017-May-15 02:00N 38°01' E 023°36'0 0.0
2017-May-15 01:30N 38°01' E 023°36'0 0.0
2017-May-15 01:00N 38°01' E 023°36'0 0.0
2017-May-15 00:30N 38°01' E 023°36'0 0.0
2017-May-15 00:01N 38°01' E 023°36'0 0.0
2017-May-14 23:30N 38°01' E 023°36'0 0.0
2017-May-14 23:00N 38°01' E 023°36'0 0.0
2017-May-14 22:30N 38°01' E 023°36'0 0.0
2017-May-14 22:01N 38°01' E 023°36'0 0.0
2017-May-14 21:30N 38°01' E 023°36'0 0.0
2017-May-14 21:01N 38°01' E 023°36'0 0.0
2017-May-14 20:30N 38°01' E 023°36'0 0.0
2017-May-14 20:00N 38°01' E 023°36'0 0.0
2017-May-14 19:31N 38°01' E 023°35'0 0.0
2017-May-14 19:00N 38°01' E 023°35'0 0.0
2017-May-14 18:30N 38°01' E 023°35'0 0.0
2017-May-14 18:00N 38°01' E 023°35'0 0.0
2017-May-14 17:30N 38°01' E 023°36'0 0.0
2017-May-14 17:00N 38°01' E 023°36'0 0.0
2017-May-14 16:30N 38°01' E 023°36'0 0.0
2017-May-14 16:01N 38°01' E 023°36'0 0.0
2017-May-14 15:30N 38°01' E 023°36'0 0.0
2017-May-14 15:00N 38°01' E 023°35'0 0.0
2017-May-14 14:30N 38°01' E 023°36'0 0.0
2017-May-14 13:30N 38°01' E 023°36'0 0.0
2017-May-14 13:00N 38°01' E 023°36'0 0.0
2017-May-14 12:30N 38°01' E 023°36'0 0.0
2017-May-14 12:01N 38°01' E 023°36'0 0.0
2017-May-14 11:30N 38°01' E 023°36'0 0.0
2017-May-14 11:00N 38°01' E 023°36'0 0.0
2017-May-14 10:31N 38°01' E 023°36'0 0.0
2017-May-14 10:00N 38°01' E 023°36'0 0.0
2017-May-14 09:31N 38°01' E 023°36'0 0.0
2017-May-14 09:00N 38°01' E 023°36'0 0.0
2017-May-14 08:29N 38°01' E 023°36'0 0.5
2017-May-14 08:00N 38°02' E 023°36'1 2.8
2017-May-14 07:30N 38°01' E 023°34'  

Dump ship's entire track history